Time;durP1;ratioP1;P1;durP2;ratioP2;P2;SDS_P1;SDS_P2;PMS_P1;PMS_P2;Temp;Humidity;BMP_temperature;BMP_pressure;BME280_temperature;BME280_humidity;BME280_pressure;Samples;Min_cycle;Max_cycle;Signal;HPM_P1;HPM_P2
2022/04/17 00:01:33;;;;;;;7.38;4.60;;;;;;;3.08;76.60;103164.38;5091971;28;20024;-74
2022/04/17 00:03:58;;;;;;;6.32;4.47;;;;;;;3.07;77.04;103161.78;5092372;28;20028;-74
2022/04/17 00:06:24;;;;;;;6.13;4.75;;;;;;;3.07;77.35;103157.38;5092452;28;20035;-79
2022/04/17 00:08:49;;;;;;;7.22;4.80;;;;;;;3.05;77.31;103156.56;5092178;28;20145;-74
2022/04/17 00:11:15;;;;;;;7.07;4.43;;;;;;;3.01;77.24;103149.63;5091252;28;20115;-74
2022/04/17 00:13:44;;;;;;;7.60;5.20;;;;;;;2.98;77.83;103161.06;5092020;28;20028;-74
2022/04/17 00:16:09;;;;;;;6.57;5.20;;;;;;;2.97;78.95;103154.09;5091948;28;20468;-74
2022/04/17 00:18:35;;;;;;;5.65;4.70;;;;;;;2.94;78.56;103151.53;5091920;28;20097;-74
2022/04/17 00:21:01;;;;;;;10.80;5.32;;;;;;;2.91;78.50;103148.97;5092050;28;20032;-73
2022/04/17 00:23:26;;;;;;;7.90;4.88;;;;;;;2.90;78.44;103143.75;5091967;28;20036;-75
2022/04/17 00:25:52;;;;;;;6.18;4.50;;;;;;;2.86;78.51;103136.81;5091949;28;20051;-74
2022/04/17 00:28:17;;;;;;;5.72;4.50;;;;;;;2.84;78.51;103136.84;5091572;28;20081;-74
2022/04/17 00:30:43;;;;;;;6.45;5.00;;;;;;;2.81;79.18;103139.53;5091912;28;20128;-74
2022/04/17 00:33:08;;;;;;;7.22;4.97;;;;;;;2.78;79.04;103135.22;5073999;28;20036;-74
2022/04/17 00:35:34;;;;;;;6.70;4.60;;;;;;;2.77;79.43;103135.25;5091982;28;20058;-74
2022/04/17 00:37:59;;;;;;;8.50;4.70;;;;;;;2.76;79.31;103133.50;5091917;28;20047;-73
2022/04/17 00:40:25;;;;;;;7.75;5.30;;;;;;;2.78;79.88;103136.97;5074026;28;20508;-76
2022/04/17 00:42:51;;;;;;;8.00;5.15;;;;;;;2.75;80.44;103137.91;5092250;28;20143;-74
2022/04/17 00:45:16;;;;;;;7.63;5.00;;;;;;;2.75;80.04;103140.53;5092476;28;20135;-73
2022/04/17 00:47:42;;;;;;;6.60;5.13;;;;;;;2.74;80.22;103130.03;5091828;28;20124;-73
2022/04/17 00:50:08;;;;;;;6.63;5.07;;;;;;;2.72;79.89;103132.72;5074404;28;20105;-74
2022/04/17 00:52:34;;;;;;;5.93;4.93;;;;;;;2.73;80.37;103133.56;5075773;28;20108;-74
2022/04/17 00:55:02;;;;;;;5.20;4.70;;;;;;;2.70;80.22;103120.47;5092773;28;20111;-73
2022/04/17 00:57:29;;;;;;;5.38;4.13;;;;;;;2.68;79.84;103124.91;5093236;28;20032;-78
2022/04/17 00:59:56;;;;;;;7.32;4.80;;;;;;;2.64;79.98;103121.47;5092645;28;20043;-74
2022/04/17 01:02:23;;;;;;;7.38;4.72;;;;;;;2.63;80.37;103125.03;5093478;28;20097;-74
2022/04/17 01:04:48;;;;;;;6.88;4.32;;;;;;;2.60;80.04;103115.44;5092511;28;20035;-75
2022/04/17 01:07:15;;;;;;;6.72;4.78;;;;;;;2.57;80.04;103117.25;5091936;28;20040;-74
2022/04/17 01:09:41;;;;;;;9.52;4.47;;;;;;;2.54;80.07;103118.19;5091849;28;20200;-75
2022/04/17 01:12:10;;;;;;;6.45;4.85;;;;;;;2.53;80.41;103120.84;5091907;28;20038;-74
2022/04/17 01:14:40;;;;;;;6.93;5.13;;;;;;;2.52;80.54;103113.84;5091655;28;20111;-75
2022/04/17 01:17:06;;;;;;;7.15;5.18;;;;;;;2.56;81.33;103105.00;5091476;28;20054;-74
2022/04/17 01:19:37;;;;;;;6.97;5.10;;;;;;;2.55;80.76;103106.75;5091492;28;20098;-78
2022/04/17 01:22:05;;;;;;;7.07;5.13;;;;;;;2.53;80.51;103108.56;5092314;28;20024;-74
2022/04/17 01:27:15;;;;;;;6.82;5.40;;;;;;;2.51;80.57;103113.00;5095792;28;20062;-73
2022/04/17 01:29:40;;;;;;;6.95;5.22;;;;;;;2.52;80.37;103108.59;5095185;28;20051;-74
2022/04/17 01:32:10;;;;;;;7.55;5.40;;;;;;;2.50;80.42;103106.00;5076933;28;20028;-74
2022/04/17 01:34:37;;;;;;;6.68;5.07;;;;;;;2.50;80.00;103110.41;5076574;28;20370;-76
2022/04/17 01:37:04;;;;;;;9.48;5.45;;;;;;;2.47;80.08;103108.69;5095055;28;20035;-74
2022/04/17 01:39:30;;;;;;;7.88;5.35;;;;;;;2.46;80.02;103114.81;5095094;28;20028;-75
2022/04/17 01:41:56;;;;;;;6.75;5.53;;;;;;;2.44;79.96;103109.59;5095035;28;20028;-74
2022/04/17 01:44:22;;;;;;;6.78;5.38;;;;;;;2.39;80.29;103103.59;5095040;28;20035;-74
2022/04/17 01:46:49;;;;;;;10.15;6.32;;;;;;;2.38;81.04;103109.72;5095093;28;20038;-75
2022/04/17 01:49:15;;;;;;;10.57;6.07;;;;;;;2.36;80.64;103102.75;5094728;28;20048;-74
2022/04/17 01:51:42;;;;;;;6.47;5.57;;;;;;;2.34;80.99;103110.69;5094929;28;20480;-74
2022/04/17 01:54:09;;;;;;;7.80;5.30;;;;;;;2.31;80.80;103108.13;5095011;28;20035;-75
2022/04/17 01:56:36;;;;;;;16.50;5.95;;;;;;;2.27;80.98;103104.69;5094715;28;20035;-75
2022/04/17 01:59:02;;;;;;;7.53;6.18;;;;;;;2.25;80.83;103101.22;5094565;28;20039;-74
2022/04/17 02:01:27;;;;;;;8.82;6.55;;;;;;;2.24;81.30;103109.13;5076638;28;20110;-75
2022/04/17 02:03:53;;;;;;;7.80;6.20;;;;;;;2.19;81.38;103105.72;5095038;28;20063;-74
2022/04/17 02:06:18;;;;;;;7.82;6.00;;;;;;;2.17;80.93;103107.53;5094650;28;20031;-74
2022/04/17 02:08:44;;;;;;;10.88;6.78;;;;;;;2.14;80.54;103102.34;5094534;28;20024;-75
2022/04/17 02:11:10;;;;;;;9.25;6.47;;;;;;;2.10;81.11;103089.22;5094165;28;20326;-74
2022/04/17 02:13:36;;;;;;;10.07;6.25;;;;;;;2.06;81.13;103095.47;5093974;28;20036;-74
2022/04/17 02:16:02;;;;;;;8.68;6.22;;;;;;;2.04;81.44;103094.59;5094160;28;20032;-74
2022/04/17 02:18:28;;;;;;;9.65;7.03;;;;;;;2.00;81.07;103092.06;5094138;28;20046;-74
2022/04/17 02:20:53;;;;;;;9.65;7.35;;;;;;;1.98;81.23;103092.09;5094204;28;20054;-74
2022/04/17 02:23:19;;;;;;;9.70;7.53;;;;;;;1.96;82.15;103086.03;5094089;28;20449;-74
2022/04/17 02:25:44;;;;;;;9.73;7.32;;;;;;;1.96;82.30;103093.00;5059139;28;20032;-75
2022/04/17 02:28:10;;;;;;;8.95;7.00;;;;;;;1.91;81.92;103090.47;5093687;28;20123;-74
2022/04/17 02:30:36;;;;;;;10.63;7.18;;;;;;;1.86;81.61;103087.94;5093928;28;20107;-73
2022/04/17 02:33:02;;;;;;;11.55;7.32;;;;;;;1.83;81.69;103081.88;5075584;28;20031;-73
2022/04/17 02:35:28;;;;;;;9.25;7.13;;;;;;;1.78;81.92;103079.34;5075072;28;20514;-74
2022/04/17 02:37:54;;;;;;;10.13;7.65;;;;;;;1.75;81.89;103082.03;5093561;28;20032;-74
2022/04/17 02:40:19;;;;;;;9.75;6.88;;;;;;;1.73;82.04;103086.41;5075674;28;20097;-74
2022/04/17 02:42:44;;;;;;;11.02;7.78;;;;;;;1.70;81.78;103082.13;5093551;28;20424;-74
2022/04/17 02:45:10;;;;;;;11.68;7.75;;;;;;;1.69;81.99;103080.38;5093831;28;20444;-74
2022/04/17 02:47:44;;;;;;;11.10;8.23;;;;;;;1.69;82.66;103076.88;5093017;28;20461;-73
2022/04/17 02:50:16;;;;;;;11.90;7.10;;;;;;;1.68;82.10;103083.88;5093319;28;20578;-74
2022/04/17 02:52:42;;;;;;;11.70;8.07;;;;;;;1.66;81.85;103084.81;5059085;28;20044;-76
2022/04/17 02:55:09;;;;;;;11.68;7.82;;;;;;;1.62;82.15;103070.88;5093194;28;20069;-74
2022/04/17 02:57:34;;;;;;;12.23;8.55;;;;;;;1.60;82.62;103070.03;5093604;28;20368;-74
2022/04/17 03:00:01;;;;;;;11.85;7.93;;;;;;;1.55;82.19;103071.84;5075130;28;20032;-74
2022/04/17 03:07:55;;;;;;;11.60;8.32;;;;;;;1.38;81.96;103072.16;5093433;28;20047;-74
2022/04/17 03:10:20;;;;;;;12.15;8.10;;;;;;;1.33;82.35;103066.97;5093187;28;20044;-74
2022/04/17 03:12:46;;;;;;;17.25;8.55;;;;;;;1.32;82.92;103067.00;5093070;28;20061;-79
2022/04/17 03:15:11;;;;;;;12.55;8.18;;;;;;;1.30;82.71;103060.91;5093234;28;20035;-74
2022/04/17 03:17:37;;;;;;;14.85;9.20;;;;;;;1.27;82.49;103066.19;5093248;28;20032;-74
2022/04/17 03:20:04;;;;;;;12.00;8.65;;;;;;;1.22;82.71;103064.53;5074986;28;20123;-74
2022/04/17 03:22:30;;;;;;;11.93;8.30;;;;;;;1.17;82.75;103061.09;5092929;28;20031;-74
2022/04/17 03:24:56;;;;;;;10.80;7.82;;;;;;;1.13;82.85;103059.41;5058317;28;20452;-74
2022/04/17 03:27:22;;;;;;;12.48;8.90;;;;;;;1.11;82.81;103060.34;5074583;28;20039;-74
2022/04/17 03:29:48;;;;;;;12.93;8.85;;;;;;;1.07;82.50;103053.41;5092759;28;20093;-79
2022/04/17 03:32:13;;;;;;;10.45;7.57;;;;;;;1.05;82.34;103053.44;5092995;28;20028;-73
2022/04/17 03:34:38;;;;;;;13.90;8.50;;;;;;;1.03;82.19;103050.81;5092847;28;20115;-73
2022/04/17 03:37:04;;;;;;;10.02;7.53;;;;;;;1.01;82.67;103052.59;5092780;28;20147;-74
2022/04/17 03:39:31;;;;;;;11.32;7.88;;;;;;;1.00;82.27;103053.50;5092723;28;20117;-74
2022/04/17 03:41:57;;;;;;;13.07;7.90;;;;;;;0.99;82.57;103051.75;5092616;28;20034;-74
2022/04/17 03:44:23;;;;;;;10.73;8.38;;;;;;;0.99;83.02;103048.28;5074445;28;20027;-73
2022/04/17 03:46:49;;;;;;;12.65;8.95;;;;;;;0.98;82.45;103047.38;5092749;28;20110;-75
2022/04/17 03:49:15;;;;;;;13.55;8.43;;;;;;;0.99;82.47;103043.03;5070431;28;20478;-74
2022/04/17 03:51:40;;;;;;;12.00;8.48;;;;;;;0.97;82.54;103044.78;5072044;28;20044;-74
2022/04/17 03:54:05;;;;;;;15.13;8.82;;;;;;;0.94;82.45;103043.09;5070823;28;20562;-74
2022/04/17 03:56:31;;;;;;;13.68;9.00;;;;;;;0.92;82.80;103039.63;5070791;28;20040;-74
2022/04/17 03:58:56;;;;;;;12.55;8.57;;;;;;;0.89;82.63;103039.66;5071844;28;20111;-73
2022/04/17 04:01:22;;;;;;;16.77;9.88;;;;;;;0.86;82.83;103040.56;5071775;28;20119;-73
2022/04/17 04:03:48;;;;;;;12.63;8.75;;;;;;;0.82;82.54;103033.66;5072147;28;20033;-73
2022/04/17 04:06:13;;;;;;;17.15;9.13;;;;;;;0.79;82.74;103038.06;5070580;28;20391;-73
2022/04/17 04:08:39;;;;;;;12.38;8.82;;;;;;;0.76;82.77;103033.75;5071630;28;20561;-74
2022/04/17 04:11:05;;;;;;;13.32;9.05;;;;;;;0.73;82.74;103027.69;5070994;28;20377;-74
2022/04/17 04:13:32;;;;;;;10.20;7.82;;;;;;;0.70;83.03;103032.09;5070301;28;20048;-73
2022/04/17 04:15:58;;;;;;;15.13;8.95;;;;;;;0.69;82.76;103029.47;5072345;28;20036;-73
2022/04/17 04:18:23;;;;;;;16.17;9.27;;;;;;;0.69;84.40;103025.09;5071774;28;20037;-73
2022/04/17 04:20:49;;;;;;;12.38;9.48;;;;;;;0.69;84.30;103032.97;5071762;28;20064;-72
2022/04/17 04:23:15;;;;;;;11.90;8.63;;;;;;;0.69;85.02;103027.72;5071465;28;20120;-73
2022/04/17 04:25:40;;;;;;;15.38;9.30;;;;;;;0.68;84.65;103022.50;5071867;28;20426;-73
2022/04/17 04:30:49;;;;;;;15.40;10.70;;;;;;;0.65;84.88;103015.53;5071981;28;20043;-74
2022/04/17 04:33:15;;;;;;;16.77;9.10;;;;;;;0.67;85.29;103013.78;5071683;28;20112;-73
2022/04/17 04:35:40;;;;;;;13.35;9.57;;;;;;;0.67;84.73;103012.91;5071421;28;20392;-73
2022/04/17 04:38:06;;;;;;;14.00;9.35;;;;;;;0.66;84.58;103005.94;5070080;28;20476;-74
2022/04/17 04:40:32;;;;;;;15.32;10.05;;;;;;;0.65;84.69;103010.31;5070237;28;20047;-74
2022/04/17 04:43:01;;;;;;;14.00;8.93;;;;;;;0.65;84.89;103010.31;5070235;28;20024;-74
2022/04/17 04:48:12;;;;;;;15.02;9.70;;;;;;;0.64;84.76;103005.97;5075223;28;20105;-74
2022/04/17 04:50:37;;;;;;;16.45;9.95;;;;;;;0.70;85.54;103008.50;5091993;28;20032;-73
2022/04/17 04:53:03;;;;;;;12.73;9.63;;;;;;;0.75;85.41;103003.19;5091100;28;20452;-73
2022/04/17 04:55:28;;;;;;;15.77;9.85;;;;;;;0.80;84.89;103008.34;5091329;28;20245;-73
2022/04/17 04:57:54;;;;;;;14.30;10.02;;;;;;;0.80;84.73;103003.97;5091042;28;20059;-73
2022/04/17 05:00:19;;;;;;;16.13;9.95;;;;;;;0.84;84.81;103005.66;5092136;28;20126;-73
2022/04/17 05:02:45;;;;;;;15.00;10.15;;;;;;;0.87;85.16;103015.25;5074138;28;20112;-72
2022/04/17 05:05:10;;;;;;;14.25;9.93;;;;;;;0.91;85.28;103016.94;5074423;28;20043;-73
2022/04/17 05:07:37;;;;;;;12.30;9.93;;;;;;;0.93;84.63;103011.69;5092070;28;20028;-74
2022/04/17 05:10:04;;;;;;;13.68;10.15;;;;;;;0.95;84.61;103009.88;5091598;28;20028;-74
2022/04/17 05:12:29;;;;;;;18.83;10.82;;;;;;;0.98;85.04;103012.44;5073798;28;20044;-74
2022/04/17 05:14:55;;;;;;;16.17;11.40;;;;;;;1.03;85.43;103010.63;5092833;28;20043;-74
2022/04/17 05:17:20;;;;;;;17.45;10.05;;;;;;;1.12;85.66;103009.59;5091535;28;20042;-74
2022/04/17 05:19:45;;;;;;;13.85;10.18;;;;;;;1.20;85.33;103007.75;5091424;28;20456;-74
2022/04/17 05:22:15;;;;;;;14.43;9.90;;;;;;;1.30;85.42;103013.69;5091282;28;20113;-74
2022/04/17 05:24:42;;;;;;;16.02;10.43;;;;;;;1.38;85.47;103014.44;5091706;28;20028;-74
2022/04/17 05:27:08;;;;;;;18.10;9.68;;;;;;;1.48;85.70;103016.00;5091346;28;20047;-74
2022/04/17 05:29:33;;;;;;;15.00;10.60;;;;;;;1.57;85.54;103013.22;5073535;28;20040;-74
2022/04/17 05:32:00;;;;;;;13.80;9.65;;;;;;;1.65;85.32;103013.06;5091038;28;20032;-77
2022/04/17 05:34:26;;;;;;;11.68;9.02;;;;;;;1.73;85.13;103015.56;5091408;28;20044;-73
2022/04/17 05:36:51;;;;;;;14.45;10.35;;;;;;;1.83;85.34;103011.00;5091247;28;20039;-73
2022/04/17 05:39:17;;;;;;;13.10;9.18;;;;;;;1.94;85.04;103011.66;5040013;28;20443;-73
2022/04/17 05:41:43;;;;;;;13.63;9.48;;;;;;;2.07;85.19;103009.66;5091228;28;20028;-73
2022/04/17 05:44:09;;;;;;;17.65;12.38;;;;;;;2.20;84.92;103016.38;5091707;28;20379;-73
2022/04/17 05:46:36;;;;;;;15.32;10.57;;;;;;;2.36;84.56;103019.56;5091050;28;20024;-74
2022/04/17 05:49:06;;;;;;;18.08;10.27;;;;;;;2.52;84.39;103014.84;5072930;28;20468;-80
2022/04/17 05:51:36;;;;;;;13.57;9.45;;;;;;;2.70;83.64;103021.44;5091254;28;20060;-75
2022/04/17 05:54:05;;;;;;;15.70;9.25;;;;;;;2.86;83.31;103018.47;5091358;28;20044;-80
2022/04/17 05:56:31;;;;;;;12.25;8.63;;;;;;;2.98;83.01;103016.41;5090909;28;20547;-75
2022/04/17 05:58:56;;;;;;;12.52;9.13;;;;;;;3.14;82.92;103021.31;5091122;28;20063;-73
2022/04/17 06:01:22;;;;;;;11.65;9.20;;;;;;;3.30;82.83;103021.78;5091036;28;20029;-73
2022/04/17 06:03:49;;;;;;;12.55;8.77;;;;;;;3.44;82.08;103019.69;5091376;28;20121;-73
2022/04/17 06:06:15;;;;;;;13.82;8.95;;;;;;;3.64;81.04;103023.56;5073377;28;20028;-73
2022/04/17 06:08:41;;;;;;;12.20;8.98;;;;;;;3.81;80.90;103025.75;5091101;28;20036;-73
2022/04/17 06:11:06;;;;;;;13.13;9.60;;;;;;;3.99;78.89;103025.25;5094213;28;20051;-79
2022/04/17 06:13:32;;;;;;;13.65;8.95;;;;;;;4.22;75.84;103019.34;5094458;28;20036;-73
2022/04/17 06:15:57;;;;;;;11.32;8.65;;;;;;;4.44;73.03;103023.97;5094406;28;20028;-74
2022/04/17 06:18:22;;;;;;;13.48;8.52;;;;;;;4.59;75.08;103015.56;5076019;28;20032;-74
2022/04/17 06:20:48;;;;;;;13.52;8.98;;;;;;;4.72;75.87;103016.06;5094298;28;20043;-75
2022/04/17 06:23:13;;;;;;;11.90;8.93;;;;;;;4.84;73.51;103014.81;5094206;28;20032;-75
2022/04/17 06:25:39;;;;;;;13.75;7.97;;;;;;;4.98;71.46;103014.38;5095631;28;20357;-75
2022/04/17 06:28:04;;;;;;;11.52;8.70;;;;;;;5.12;72.06;103019.22;5076786;28;20039;-74
2022/04/17 06:30:30;;;;;;;11.00;7.97;;;;;;;5.29;68.28;103016.03;5076691;28;20468;-73
2022/04/17 06:32:56;;;;;;;9.40;7.18;;;;;;;5.47;66.55;103015.38;5077087;28;20031;-72
2022/04/17 06:35:21;;;;;;;10.82;7.68;;;;;;;5.60;65.77;103010.56;5094676;28;20047;-72
2022/04/17 06:37:54;;;;;;;10.38;7.45;;;;;;;5.77;65.78;103011.72;5076400;28;20131;-72
2022/04/17 06:40:22;;;;;;;10.30;7.25;;;;;;;5.93;63.94;103006.78;5094206;28;20036;-72
2022/04/17 06:42:49;;;;;;;9.20;6.72;;;;;;;6.07;63.48;103006.28;5093933;28;20453;-79
2022/04/17 06:45:15;;;;;;;12.35;6.93;;;;;;;6.20;61.08;103002.28;5094268;28;20066;-75
2022/04/17 06:47:41;;;;;;;8.75;7.10;;;;;;;6.31;62.33;103005.34;5095122;28;20106;-73
2022/04/17 06:50:07;;;;;;;10.00;7.10;;;;;;;6.43;61.91;102997.88;5094844;28;20387;-77
2022/04/17 06:52:33;;;;;;;10.32;7.43;;;;;;;6.53;61.47;103000.09;5094552;28;20120;-72
2022/04/17 06:54:58;;;;;;;11.82;7.32;;;;;;;6.63;62.02;102997.13;5076663;28;20032;-76
2022/04/17 06:57:36;;;;;;;10.88;7.75;;;;;;;6.77;62.42;103004.50;5094694;28;20522;-73
2022/04/17 07:00:10;;;;;;;10.35;7.10;;;;;;;6.92;60.00;102997.72;5094863;28;20032;-73
2022/04/17 07:02:40;;;;;;;7.40;6.43;;;;;;;7.02;56.84;102999.09;5076180;28;20417;-73
2022/04/17 07:05:06;;;;;;;9.73;6.65;;;;;;;7.13;57.11;103002.13;5093979;28;20028;-72
2022/04/17 07:07:32;;;;;;;8.02;6.07;;;;;;;7.27;57.52;103003.34;5093855;28;20032;-73
2022/04/17 07:09:58;;;;;;;13.63;6.47;;;;;;;7.37;55.43;103002.88;5094208;28;20051;-73
2022/04/17 07:12:23;;;;;;;10.63;6.20;;;;;;;7.46;54.48;103004.28;5093785;28;20464;-73
2022/04/17 07:14:50;;;;;;;11.43;6.43;;;;;;;7.60;54.75;103001.06;5093513;28;20047;-73
2022/04/17 07:17:15;;;;;;;9.25;6.65;;;;;;;7.74;55.21;103003.94;5093699;28;20039;-75
2022/04/17 07:19:41;;;;;;;10.90;6.20;;;;;;;7.90;53.47;102992.69;5093423;28;20044;-74
2022/04/17 07:22:06;;;;;;;9.13;6.10;;;;;;;8.01;54.32;102993.03;5075253;28;20173;-73
2022/04/17 07:24:32;;;;;;;9.50;6.03;;;;;;;8.14;52.70;102993.34;5093841;28;20435;-73
2022/04/17 07:26:58;;;;;;;7.68;6.10;;;;;;;8.31;51.89;103000.50;5093442;28;20044;-74
2022/04/17 07:29:23;;;;;;;9.93;6.28;;;;;;;8.39;52.20;102995.72;5075532;28;20032;-74
2022/04/17 07:31:50;;;;;;;8.45;6.40;;;;;;;8.53;50.84;102986.28;5093760;28;20099;-72
2022/04/17 07:34:20;;;;;;;9.00;6.60;;;;;;;8.61;50.52;102982.34;5075620;28;20452;-73
2022/04/17 07:36:52;;;;;;;13.23;6.00;;;;;;;8.74;50.68;102987.88;5093336;28;20032;-72
2022/04/17 07:39:22;;;;;;;9.63;5.95;;;;;;;8.85;48.73;102984.69;5093849;28;20047;-73
2022/04/17 07:41:48;;;;;;;11.98;6.20;;;;;;;8.95;48.91;102988.63;5076297;28;20451;-72
2022/04/17 07:44:14;;;;;;;10.20;6.00;;;;;;;9.06;48.51;102990.78;5093712;28;20028;-77
2022/04/17 07:46:41;;;;;;;7.70;5.47;;;;;;;9.19;48.92;102983.03;5093474;28;20070;-72
2022/04/17 07:49:06;;;;;;;10.02;5.90;;;;;;;9.35;48.77;102983.13;5093573;28;20071;-73
2022/04/17 07:51:32;;;;;;;7.85;5.53;;;;;;;9.45;47.90;102986.13;5093405;28;20071;-72
2022/04/17 07:53:57;;;;;;;9.73;5.88;;;;;;;9.66;47.42;102982.38;5075091;28;20060;-73
2022/04/17 07:56:23;;;;;;;7.65;5.88;;;;;;;9.93;47.00;102978.31;5093415;28;20460;-73
2022/04/17 07:58:48;;;;;;;9.63;5.88;;;;;;;10.27;48.90;102979.16;5093354;28;20035;-72
2022/04/17 08:01:16;;;;;;;7.72;5.47;;;;;;;10.67;46.46;102979.59;5093722;28;20032;-72
2022/04/17 08:06:10;;;;;;;6.78;5.93;;;;;;;11.31;44.03;102972.31;5093244;28;20032;-73
2022/04/17 08:08:39;;;;;;;7.38;5.30;;;;;;;11.87;43.35;102975.16;5093259;28;20024;-75
2022/04/17 08:11:05;;;;;;;7.40;5.53;;;;;;;12.32;41.91;102972.38;5093145;28;20083;-75
2022/04/17 08:13:32;;;;;;;7.80;5.82;;;;;;;12.86;40.85;102966.19;5092974;28;20036;-73
2022/04/17 08:15:57;;;;;;;9.55;5.93;;;;;;;13.52;42.14;102967.06;5093178;28;20040;-73
2022/04/17 08:18:23;;;;;;;9.57;5.65;;;;;;;13.82;38.55;102962.34;5092669;28;20073;-75
2022/04/17 08:20:48;;;;;;;8.27;5.43;;;;;;;13.92;38.05;102960.75;5074731;28;20603;-74
2022/04/17 08:23:14;;;;;;;7.65;5.30;;;;;;;13.88;36.96;102956.56;5092673;28;20447;-74
2022/04/17 08:25:40;;;;;;;7.05;5.32;;;;;;;13.92;38.32;102966.09;5092708;28;20035;-74
2022/04/17 08:28:06;;;;;;;7.15;5.40;;;;;;;14.00;37.45;102963.75;5057826;28;20028;-74
2022/04/17 08:30:33;;;;;;;7.95;5.80;;;;;;;14.03;38.01;102957.28;5092798;28;20115;-75
2022/04/17 08:33:00;;;;;;;5.85;4.97;;;;;;;13.81;37.74;102960.63;5092346;28;20032;-76
2022/04/17 08:35:25;;;;;;;7.25;5.20;;;;;;;13.96;38.36;102951.53;5092453;28;20036;-72
2022/04/17 08:37:52;;;;;;;7.38;5.15;;;;;;;14.03;37.99;102954.59;5092534;28;20081;-73
2022/04/17 08:40:17;;;;;;;9.40;5.60;;;;;;;14.07;37.63;102951.59;5074871;28;20035;-75
2022/04/17 08:42:44;;;;;;;6.85;5.53;;;;;;;13.88;37.15;102945.84;5074026;28;20430;-76
2022/04/17 08:45:11;;;;;;;7.70;5.00;;;;;;;14.13;38.03;102944.94;5092542;28;20044;-76
2022/04/17 08:47:39;;;;;;;5.63;4.85;;;;;;;14.10;38.16;102950.53;5074158;28;20126;-76
2022/04/17 08:50:12;;;;;;;9.50;5.18;;;;;;;14.32;37.63;102939.13;5092704;28;20150;-75
2022/04/17 08:52:38;;;;;;;8.88;5.32;;;;;;;14.48;36.81;102941.53;5092782;28;20040;-75
2022/04/17 08:55:04;;;;;;;6.85;4.78;;;;;;;14.69;34.64;102935.53;5092368;28;20035;-76
2022/04/17 08:57:30;;;;;;;6.07;4.88;;;;;;;14.80;33.66;102947.16;5092795;28;20103;-76
2022/04/17 08:59:55;;;;;;;12.05;5.50;;;;;;;15.83;33.61;102940.22;5092048;28;20074;-77
2022/04/17 09:02:21;;;;;;;5.90;4.88;;;;;;;16.72;32.73;102932.09;5092531;28;20032;-75
2022/04/17 09:04:46;;;;;;;6.30;4.68;;;;;;;17.61;31.77;102934.34;5074277;28;20032;-75
2022/04/17 09:07:13;;;;;;;7.50;4.90;;;;;;;18.66;29.29;102931.25;5092717;28;20036;-76
2022/04/17 09:09:50;;;;;;;5.85;4.95;;;;;;;19.01;27.91;102929.81;5092053;28;20487;-77
2022/04/17 09:12:26;;;;;;;8.13;5.30;;;;;;;20.11;27.25;102919.34;5092761;28;20039;-77
2022/04/17 09:14:55;;;;;;;9.52;4.85;;;;;;;20.82;25.44;102925.78;5092392;28;20067;-75
2022/04/17 09:17:28;;;;;;;6.43;4.45;;;;;;;22.08;24.98;102919.03;5092233;28;20119;-75
2022/04/17 09:19:53;;;;;;;6.43;4.40;;;;;;;22.36;23.90;102925.94;5092891;28;20043;-75
2022/04/17 09:22:19;;;;;;;6.57;4.97;;;;;;;22.56;22.22;102916.59;5057710;28;20032;-74
2022/04/17 09:24:44;;;;;;;6.70;4.38;;;;;;;22.40;23.46;102912.03;5092682;28;20036;-76
2022/04/17 09:27:11;;;;;;;6.22;4.50;;;;;;;22.24;22.80;102915.53;5074647;28;20036;-72
2022/04/17 09:29:38;;;;;;;4.65;4.25;;;;;;;22.78;22.57;102907.81;5074749;28;20035;-74
2022/04/17 09:32:06;;;;;;;8.00;4.88;;;;;;;21.79;23.33;102904.06;5094069;28;20073;-74
2022/04/17 09:34:50;;;;;;;8.52;4.55;;;;;;;21.87;23.31;102898.69;5093045;28;20035;-73
2022/04/17 09:37:17;;;;;;;5.57;4.43;;;;;;;22.35;23.90;102894.41;5093543;28;20039;-76
2022/04/17 09:39:43;;;;;;;5.45;4.10;;;;;;;22.45;22.47;102896.97;5058061;28;20341;-72
2022/04/17 09:42:09;;;;;;;5.47;4.50;;;;;;;23.13;22.89;102891.34;5074495;28;20035;-71
2022/04/17 09:44:46;;;;;;;5.80;4.15;;;;;;;22.05;22.18;102893.13;5095647;28;20028;-72
2022/04/17 09:47:16;;;;;;;7.53;4.25;;;;;;;22.58;22.20;102887.47;5077845;28;20035;-76
2022/04/17 09:49:54;;;;;;;7.63;4.40;;;;;;;22.62;22.07;102888.84;5095664;28;20051;-74
2022/04/17 09:52:20;;;;;;;5.07;3.88;;;;;;;22.92;22.10;102879.13;5095407;28;20054;-76
2022/04/17 09:54:47;;;;;;;5.05;4.15;;;;;;;22.97;23.11;102879.44;5095718;28;20036;-75
2022/04/17 09:57:28;;;;;;;4.72;4.22;;;;;;;23.36;22.29;102873.28;5077889;28;20040;-79
2022/04/17 09:59:55;;;;;;;5.20;4.03;;;;;;;22.60;21.81;102856.44;5095971;28;20043;-76
2022/04/17 10:02:24;;;;;;;4.80;3.92;;;;;;;23.20;22.95;102866.03;5095785;28;20176;-76
2022/04/17 10:04:49;;;;;;;5.82;4.28;;;;;;;23.69;22.15;102856.84;5096065;28;20028;-79
2022/04/17 10:07:18;;;;;;;4.65;4.10;;;;;;;23.78;21.74;102865.78;5077001;28;20391;-75
2022/04/17 10:09:46;;;;;;;7.68;4.22;;;;;;;24.11;22.46;102858.31;5095309;28;20081;-76
2022/04/17 10:12:14;;;;;;;5.95;4.47;;;;;;;23.46;21.32;102855.94;5095390;28;20059;-73
2022/04/17 10:14:40;;;;;;;6.13;4.47;;;;;;;23.24;22.96;102856.53;5094957;28;20032;-74
2022/04/17 10:17:08;;;;;;;8.45;4.80;;;;;;;23.52;21.82;102853.34;5077082;28;20456;-76
2022/04/17 10:19:35;;;;;;;4.85;4.35;;;;;;;23.30;22.33;102844.09;5095556;28;20073;-74
2022/04/17 10:22:03;;;;;;;8.05;4.35;;;;;;;23.63;21.56;102838.50;5095234;28;20093;-74
2022/04/17 10:24:28;;;;;;;4.53;3.80;;;;;;;23.89;21.72;102843.66;5077407;28;20111;-74
2022/04/17 10:26:54;;;;;;;5.85;4.57;;;;;;;24.09;22.39;102841.34;5094630;28;20169;-76
2022/04/17 10:29:49;;;;;;;7.00;4.25;;;;;;;23.31;21.04;102834.09;5094721;28;20491;-71
2022/04/17 10:32:32;;;;;;;4.13;3.72;;;;;;;22.94;22.13;102830.94;5080776;28;20040;-71
2022/04/17 10:35:20;;;;;;;4.53;3.70;;;;;;;23.37;20.72;102830.69;5095127;28;20112;-72
2022/04/17 10:37:54;;;;;;;4.20;3.80;;;;;;;23.67;21.85;102823.56;5094781;28;20056;-73
2022/04/17 10:40:20;;;;;;;9.13;4.03;;;;;;;23.51;21.69;102820.94;5094716;28;20476;-72
2022/04/17 10:43:02;;;;;;;5.90;3.95;;;;;;;23.53;21.13;102818.91;5094750;28;20028;-73
2022/04/17 10:45:31;;;;;;;4.72;3.83;;;;;;;23.19;23.24;102818.19;5094956;28;20039;-73
2022/04/17 10:48:05;;;;;;;5.50;3.70;;;;;;;23.82;22.13;102811.94;5094828;28;20028;-75
2022/04/17 10:50:43;;;;;;;7.90;4.07;;;;;;;23.38;20.78;102803.34;5094931;28;20040;-72
2022/04/17 10:53:29;;;;;;;7.90;3.60;;;;;;;24.26;20.46;102803.16;5095101;28;20425;-73
2022/04/17 10:56:03;;;;;;;5.50;4.13;;;;;;;23.66;21.69;102802.00;5093143;28;20047;-76
2022/04/17 10:58:35;;;;;;;4.65;3.92;;;;;;;23.82;22.04;102788.31;5094788;28;20031;-72
2022/04/17 11:01:00;;;;;;;4.20;3.78;;;;;;;23.59;22.87;102789.13;5094518;28;20067;-72
2022/04/17 11:03:26;;;;;;;5.28;3.88;;;;;;;24.03;19.58;102784.94;5094562;28;20028;-72
2022/04/17 11:06:12;;;;;;;4.72;3.40;;;;;;;24.20;19.66;102782.97;5076556;28;20071;-74
2022/04/17 11:08:48;;;;;;;4.20;3.25;;;;;;;23.82;20.12;102784.75;5094895;28;20096;-71
2022/04/17 11:11:14;;;;;;;5.53;3.47;;;;;;;24.22;19.35;102772.72;5093742;28;20024;-72
2022/04/17 11:14:21;;;;;;;3.58;2.75;;;;;;;24.18;18.51;102767.84;5094274;28;20119;-72
2022/04/17 11:16:58;;;;;;;9.73;3.20;;;;;;;23.52;20.10;102766.41;5093920;28;20054;-72
2022/04/17 11:19:25;;;;;;;4.43;3.50;;;;;;;23.90;20.68;102758.41;5094628;28;20056;-72
2022/04/17 11:21:53;;;;;;;8.35;3.60;;;;;;;24.09;21.37;102751.63;5075526;28;20392;-76
2022/04/17 11:24:22;;;;;;;5.80;3.50;;;;;;;24.54;20.87;102756.28;5093910;28;20085;-75
2022/04/17 11:26:53;;;;;;;4.65;3.88;;;;;;;24.36;21.52;102741.16;5093625;28;20439;-71
2022/04/17 11:29:48;;;;;;;4.63;3.42;;;;;;;24.79;18.79;102746.00;5093425;28;20431;-73
2022/04/17 11:32:16;;;;;;;5.38;3.40;;;;;;;23.84;20.80;102745.50;5093713;28;20032;-73
2022/04/17 11:34:43;;;;;;;6.35;3.47;;;;;;;23.99;20.94;102736.56;5093595;28;20024;-72
2022/04/17 11:37:09;;;;;;;4.95;3.60;;;;;;;23.89;19.91;102740.38;5075397;28;20025;-75
2022/04/17 11:39:36;;;;;;;8.10;3.30;;;;;;;24.44;19.45;102729.38;5093674;28;20116;-72
2022/04/17 11:42:03;;;;;;;4.63;3.28;;;;;;;24.74;21.14;102727.53;5093299;28;20054;-72
2022/04/17 11:44:29;;;;;;;3.33;3.03;;;;;;;24.60;19.42;102726.50;5075327;28;20500;-72